Time;durP1;ratioP1;P1;durP2;ratioP2;P2;SDS_P1;SDS_P2;PMS_P1;PMS_P2;Temp;Humidity;BMP_temperature;BMP_pressure;BME280_temperature;BME280_humidity;BME280_pressure;Samples;Min_cycle;Max_cycle;Signal;HPM_P1;HPM_P2
2023/03/13 00:00:15;;;;;;;14.90;5.57;;;;;;;;;;5113816;28;20470;-73
2023/03/13 00:02:49;;;;;;;21.17;7.37;;;;;;;;;;5114094;28;20481;-73
2023/03/13 00:05:17;;;;;;;29.40;8.63;;;;;;;;;;5121785;28;20455;-71
2023/03/13 00:07:47;;;;;;;29.40;6.67;;;;;;;;;;5115548;28;20744;-71
2023/03/13 00:10:14;;;;;;;19.77;6.00;;;;;;;;;;5110826;28;20876;-72
2023/03/13 00:12:43;;;;;;;17.93;7.57;;;;;;;;;;5111340;28;20866;-72
2023/03/13 00:15:11;;;;;;;20.67;7.27;;;;;;;;;;5122838;28;20458;-72
2023/03/13 00:17:39;;;;;;;30.13;6.70;;;;;;;;;;5120987;28;20461;-71
2023/03/13 00:20:08;;;;;;;20.07;6.80;;;;;;;;;;5121847;28;20957;-72
2023/03/13 00:22:38;;;;;;;23.80;7.50;;;;;;;;;;5121600;28;20474;-71
2023/03/13 00:25:23;;;;;;;;;;;;;;;;;;;;;
2023/03/13 00:28:00;;;;;;;24.07;7.00;;;;;;;;;;5120395;28;20441;-70
2023/03/13 00:30:28;;;;;;;22.13;9.00;;;;;;;;;;5092994;28;20739;-72
2023/03/13 00:32:55;;;;;;;33.73;6.90;;;;;;;;;;5119161;28;20784;-72
2023/03/13 00:35:23;;;;;;;31.40;6.43;;;;;;;;;;5122008;28;20450;-73
2023/03/13 00:37:51;;;;;;;22.47;7.20;;;;;;;;;;5122004;28;20853;-72
2023/03/13 00:40:20;;;;;;;24.73;7.33;;;;;;;;;;5116079;28;20491;-72
2023/03/13 00:42:48;;;;;;;30.20;7.40;;;;;;;;;;5101679;28;20574;-72
2023/03/13 00:45:16;;;;;;;37.63;9.07;;;;;;;;;;5102571;28;20730;-73
2023/03/13 00:47:44;;;;;;;22.77;8.00;;;;;;;;;;5101077;28;20521;-72
2023/03/13 00:50:14;;;;;;;23.83;7.87;;;;;;;;;;5102445;28;20470;-72
2023/03/13 00:52:42;;;;;;;23.77;7.10;;;;;;;;;;5100707;28;20452;-72
2023/03/13 00:55:11;;;;;;;27.57;7.73;;;;;;;;;;5100590;28;20535;-71
2023/03/13 00:57:40;;;;;;;25.90;7.93;;;;;;;;;;5101492;28;20460;-72
2023/03/13 01:00:11;;;;;;;22.10;7.40;;;;;;;;;;5100892;28;20871;-71
2023/03/13 01:02:42;;;;;;;27.57;8.20;;;;;;;;;;5102249;28;20499;-73
2023/03/13 01:05:34;;;;;;;20.90;6.70;;;;;;;;;;5114879;28;20457;-73
2023/03/13 01:08:02;;;;;;;23.43;6.73;;;;;;;;;;5122544;28;20971;-71
2023/03/13 01:10:30;;;;;;;26.43;7.10;;;;;;;;;;5121289;28;20454;-71
2023/03/13 01:13:03;;;;;;;17.73;6.47;;;;;;;;;;5117997;28;20504;-72
2023/03/13 01:15:36;;;;;;;28.37;8.57;;;;;;;;;;5108646;28;20450;-72
2023/03/13 01:18:04;;;;;;;29.70;8.57;;;;;;;;;;5110253;28;20770;-72
2023/03/13 01:20:32;;;;;;;23.90;6.10;;;;;;;;;;5105057;28;20464;-72
2023/03/13 01:23:01;;;;;;;24.63;7.70;;;;;;;;;;5108686;28;20564;-71
2023/03/13 01:25:30;;;;;;;14.67;5.80;;;;;;;;;;5112083;28;20750;-70
2023/03/13 01:28:01;;;;;;;21.17;7.33;;;;;;;;;;5111704;28;20522;-72
2023/03/13 01:30:29;;;;;;;26.47;6.33;;;;;;;;;;5112350;28;20456;-71
2023/03/13 01:33:01;;;;;;;33.43;8.60;;;;;;;;;;5116745;28;20447;-71
2023/03/13 01:35:29;;;;;;;20.13;7.07;;;;;;;;;;5110098;28;20462;-71
2023/03/13 01:37:56;;;;;;;27.17;7.23;;;;;;;;;;5108599;28;20812;-71
2023/03/13 01:40:25;;;;;;;29.23;6.93;;;;;;;;;;5109358;28;20452;-72
2023/03/13 01:42:53;;;;;;;29.97;8.20;;;;;;;;;;5108534;28;20990;-70
2023/03/13 01:45:44;;;;;;;20.07;7.87;;;;;;;;;;5109282;28;20436;-71
2023/03/13 01:48:17;;;;;;;28.63;7.00;;;;;;;;;;5108067;28;20444;-72
2023/03/13 01:50:45;;;;;;;22.33;6.70;;;;;;;;;;5106408;28;20480;-72
2023/03/13 01:53:12;;;;;;;17.97;6.60;;;;;;;;;;5112453;28;20440;-72
2023/03/13 01:55:42;;;;;;;17.97;7.30;;;;;;;;;;5108052;28;20700;-72
2023/03/13 01:58:09;;;;;;;21.17;6.47;;;;;;;;;;5104644;28;20459;-72
2023/03/13 02:00:37;;;;;;;28.20;9.03;;;;;;;;;;5101404;28;20462;-73
2023/03/13 02:03:09;;;;;;;19.23;7.90;;;;;;;;;;5100415;28;20483;-72
2023/03/13 02:05:39;;;;;;;23.73;7.30;;;;;;;;;;5100791;28;20907;-71
2023/03/13 02:08:09;;;;;;;17.57;7.70;;;;;;;;;;5100318;28;20458;-71
2023/03/13 02:10:40;;;;;;;21.07;6.97;;;;;;;;;;5101441;28;20455;-72
2023/03/13 02:13:09;;;;;;;27.73;7.03;;;;;;;;;;5099797;28;20451;-73
2023/03/13 02:15:37;;;;;;;28.93;6.70;;;;;;;;;;5100904;28;20459;-71
2023/03/13 02:18:05;;;;;;;19.60;6.63;;;;;;;;;;5100190;28;20538;-72
2023/03/13 02:20:35;;;;;;;28.63;7.00;;;;;;;;;;5096790;28;20467;-71
2023/03/13 02:23:19;;;;;;;26.17;6.80;;;;;;;;;;5096617;28;20483;-73
2023/03/13 02:25:50;;;;;;;34.33;7.07;;;;;;;;;;5100406;28;20459;-72
2023/03/13 02:28:19;;;;;;;17.03;6.33;;;;;;;;;;5099786;28;20864;-71
2023/03/13 02:30:47;;;;;;;22.53;6.40;;;;;;;;;;5100145;28;20456;-71
2023/03/13 02:33:15;;;;;;;28.27;6.47;;;;;;;;;;5098743;28;20444;-72
2023/03/13 02:35:43;;;;;;;14.43;4.93;;;;;;;;;;5105524;28;20439;-73
2023/03/13 02:38:20;;;;;;;16.93;5.50;;;;;;;;;;5099271;28;20464;-72
2023/03/13 02:40:50;;;;;;;22.30;5.60;;;;;;;;;;5117113;28;20450;-71
2023/03/13 02:43:19;;;;;;;20.97;5.90;;;;;;;;;;5119207;28;20478;-72
2023/03/13 02:46:04;;;;;;;24.40;5.07;;;;;;;;;;5116348;28;20474;-72
2023/03/13 02:48:33;;;;;;;23.50;5.93;;;;;;;;;;5099325;28;20490;-71
2023/03/13 02:51:05;;;;;;;22.60;5.50;;;;;;;;;;5094679;28;20452;-72
2023/03/13 02:53:34;;;;;;;13.53;4.03;;;;;;;;;;5091557;28;20452;-73
2023/03/13 02:56:04;;;;;;;18.80;6.27;;;;;;;;;;5099940;28;20444;-73
2023/03/13 02:58:46;;;;;;;17.03;5.70;;;;;;;;;;5090753;28;20716;-73
2023/03/13 03:01:13;;;;;;;21.00;5.90;;;;;;;;;;5099193;28;20460;-72
2023/03/13 03:03:51;;;;;;;;;;;;;;;;;;;;;
2023/03/13 03:06:19;;;;;;;26.03;6.10;;;;;;;;;;5098950;28;20455;-73
2023/03/13 03:08:47;;;;;;;13.30;4.63;;;;;;;;;;5098946;28;20928;-72
2023/03/13 03:11:16;;;;;;;12.50;3.97;;;;;;;;;;5100007;28;20447;-71
2023/03/13 03:13:47;;;;;;;17.03;4.10;;;;;;;;;;5099501;28;20462;-71
2023/03/13 03:16:17;;;;;;;27.80;7.07;;;;;;;;;;5099967;28;20454;-72
2023/03/13 03:18:47;;;;;;;21.47;5.43;;;;;;;;;;5098495;28;20462;-72
2023/03/13 03:21:17;;;;;;;27.50;7.03;;;;;;;;;;5099778;28;20478;-72
2023/03/13 03:23:45;;;;;;;24.43;5.10;;;;;;;;;;5098919;28;21128;-72
2023/03/13 03:26:14;;;;;;;13.20;4.13;;;;;;;;;;5102121;28;20517;-72
2023/03/13 03:28:46;;;;;;;22.23;5.17;;;;;;;;;;5103063;28;20790;-72
2023/03/13 03:31:17;;;;;;;11.50;3.87;;;;;;;;;;5104678;28;20447;-73
2023/03/13 03:33:45;;;;;;;21.77;4.73;;;;;;;;;;5102624;28;20451;-73
2023/03/13 03:36:15;;;;;;;11.87;4.97;;;;;;;;;;5103325;28;20454;-72
2023/03/13 03:38:42;;;;;;;12.10;4.27;;;;;;;;;;5103239;28;20538;-71
2023/03/13 03:41:15;;;;;;;23.40;5.40;;;;;;;;;;5103475;28;20455;-72
2023/03/13 03:43:49;;;;;;;18.27;4.90;;;;;;;;;;5103568;28;20505;-73
2023/03/13 03:46:18;;;;;;;19.93;4.53;;;;;;;;;;5122054;28;20450;-72
2023/03/13 03:48:48;;;;;;;14.00;4.17;;;;;;;;;;5123899;28;20451;-72
2023/03/13 03:51:17;;;;;;;24.27;3.87;;;;;;;;;;5123832;28;20560;-73
2023/03/13 03:53:46;;;;;;;15.40;3.97;;;;;;;;;;5123801;28;20470;-73
2023/03/13 03:56:16;;;;;;;18.43;4.80;;;;;;;;;;5123707;28;20524;-73
2023/03/13 03:58:48;;;;;;;13.10;3.43;;;;;;;;;;5124040;28;20533;-73
2023/03/13 04:01:17;;;;;;;22.27;7.40;;;;;;;;;;5123352;28;20483;-73
2023/03/13 04:03:47;;;;;;;19.20;5.33;;;;;;;;;;5123618;28;20482;-73
2023/03/13 04:06:16;;;;;;;18.77;5.70;;;;;;;;;;5122799;28;20450;-71
2023/03/13 04:08:48;;;;;;;24.70;5.53;;;;;;;;;;5123772;28;20461;-73
2023/03/13 04:11:19;;;;;;;12.63;5.37;;;;;;;;;;5123187;28;20734;-72
2023/03/13 04:13:52;;;;;;;21.67;4.70;;;;;;;;;;5123544;28;20472;-74
2023/03/13 04:16:21;;;;;;;18.13;4.10;;;;;;;;;;5122510;28;20459;-73
2023/03/13 04:18:53;;;;;;;17.40;3.87;;;;;;;;;;5121403;28;20447;-73
2023/03/13 04:21:21;;;;;;;18.00;4.73;;;;;;;;;;5121580;28;20530;-73
2023/03/13 04:24:00;;;;;;;13.83;5.17;;;;;;;;;;5122594;28;20551;-72
2023/03/13 04:26:27;;;;;;;18.17;4.40;;;;;;;;;;5121733;28;20933;-73
2023/03/13 04:28:59;;;;;;;15.40;3.33;;;;;;;;;;5123797;28;20514;-73
2023/03/13 04:31:28;;;;;;;17.30;6.43;;;;;;;;;;5122072;28;20893;-72
2023/03/13 04:33:58;;;;;;;18.70;4.90;;;;;;;;;;5123852;28;20530;-72
2023/03/13 04:36:27;;;;;;;18.27;4.17;;;;;;;;;;5121322;28;20565;-71
2023/03/13 04:38:57;;;;;;;18.20;4.90;;;;;;;;;;5123525;28;20523;-72
2023/03/13 04:41:26;;;;;;;15.43;3.33;;;;;;;;;;5121656;28;20474;-72
2023/03/13 04:43:58;;;;;;;17.90;4.00;;;;;;;;;;5122113;28;20492;-74
2023/03/13 04:46:29;;;;;;;18.50;5.27;;;;;;;;;;5121795;28;20455;-70
2023/03/13 04:48:58;;;;;;;20.07;4.03;;;;;;;;;;5122597;28;20443;-73
2023/03/13 04:51:29;;;;;;;18.07;4.10;;;;;;;;;;5123012;28;20461;-73
2023/03/13 04:53:58;;;;;;;12.13;4.00;;;;;;;;;;5120924;28;20454;-73
2023/03/13 04:56:27;;;;;;;16.07;4.80;;;;;;;;;;5121265;28;20435;-74
2023/03/13 04:58:57;;;;;;;13.50;3.77;;;;;;;;;;5121119;28;21113;-73
2023/03/13 05:01:27;;;;;;;19.20;4.23;;;;;;;;;;5114511;27;20471;-73
2023/03/13 05:03:55;;;;;;;14.97;3.83;;;;;;;;;;5100554;28;21205;-73
2023/03/13 05:06:22;;;;;;;17.63;3.60;;;;;;;;;;5099704;28;20535;-73
2023/03/13 05:08:50;;;;;;;22.37;5.43;;;;;;;;;;5099413;28;20471;-73
2023/03/13 05:11:21;;;;;;;17.83;4.50;;;;;;;;;;5100261;28;20525;-73
2023/03/13 05:13:48;;;;;;;15.57;4.23;;;;;;;;;;5099533;28;20448;-73
2023/03/13 05:16:16;;;;;;;12.60;3.90;;;;;;;;;;5100285;28;20459;-73
2023/03/13 05:18:46;;;;;;;13.00;4.33;;;;;;;;;;5098123;28;20452;-72
2023/03/13 05:21:14;;;;;;;17.17;3.90;;;;;;;;;;5111253;28;20459;-73
2023/03/13 05:23:42;;;;;;;14.63;4.43;;;;;;;;;;5119189;28;20560;-73
2023/03/13 05:26:09;;;;;;;18.73;4.70;;;;;;;;;;5118314;28;20447;-74
2023/03/13 05:28:37;;;;;;;16.57;4.37;;;;;;;;;;5118589;28;20920;-72
2023/03/13 05:31:05;;;;;;;19.37;4.67;;;;;;;;;;5102901;28;20460;-73
2023/03/13 05:33:33;;;;;;;24.17;4.93;;;;;;;;;;5104046;28;20702;-73
2023/03/13 05:36:03;;;;;;;18.27;4.37;;;;;;;;;;5098117;28;20917;-72
2023/03/13 05:38:31;;;;;;;13.70;4.60;;;;;;;;;;5099008;28;20458;-72
2023/03/13 05:41:00;;;;;;;10.50;4.40;;;;;;;;;;5098757;28;20436;-72
2023/03/13 05:43:29;;;;;;;13.80;4.90;;;;;;;;;;5098495;28;20593;-72
2023/03/13 05:45:56;;;;;;;8.70;3.13;;;;;;;;;;5097635;28;20925;-73
2023/03/13 05:48:24;;;;;;;16.20;4.43;;;;;;;;;;5097454;28;20464;-73
2023/03/13 05:50:52;;;;;;;15.67;4.10;;;;;;;;;;5099466;28;20456;-72
2023/03/13 05:53:21;;;;;;;17.43;4.97;;;;;;;;;;5100451;28;20451;-74
2023/03/13 05:55:52;;;;;;;15.27;4.60;;;;;;;;;;5102530;28;20472;-72
2023/03/13 05:58:23;;;;;;;12.23;4.50;;;;;;;;;;5118910;28;20470;-72
2023/03/13 06:00:50;;;;;;;16.10;4.20;;;;;;;;;;5120784;28;20459;-73
2023/03/13 06:03:21;;;;;;;16.70;3.83;;;;;;;;;;5118994;28;20482;-73
2023/03/13 06:05:49;;;;;;;10.40;3.33;;;;;;;;;;5120313;28;20839;-72
2023/03/13 06:08:17;;;;;;;13.13;3.20;;;;;;;;;;5114985;28;20463;-73
2023/03/13 06:10:46;;;;;;;15.57;3.97;;;;;;;;;;5099634;28;20456;-71
2023/03/13 06:13:14;;;;;;;14.93;3.00;;;;;;;;;;5097523;28;20452;-72
2023/03/13 06:15:42;;;;;;;7.80;3.40;;;;;;;;;;5099198;28;20456;-72
2023/03/13 06:18:10;;;;;;;14.40;3.70;;;;;;;;;;5097994;28;20892;-72
2023/03/13 06:20:40;;;;;;;15.60;4.50;;;;;;;;;;5099786;28;20511;-72
2023/03/13 06:23:08;;;;;;;7.70;3.63;;;;;;;;;;5098651;28;20894;-71
2023/03/13 06:25:36;;;;;;;12.23;3.80;;;;;;;;;;5118971;28;20439;-73
2023/03/13 06:28:06;;;;;;;7.23;3.03;;;;;;;;;;5119360;28;20459;-73
2023/03/13 06:30:33;;;;;;;11.67;2.97;;;;;;;;;;5115903;28;20447;-73
2023/03/13 06:33:01;;;;;;;7.30;2.53;;;;;;;;;;5117363;28;21060;-71
2023/03/13 06:35:29;;;;;;;14.27;3.73;;;;;;;;;;5116109;28;20500;-71
2023/03/13 06:37:57;;;;;;;10.90;3.30;;;;;;;;;;5097261;28;20481;-71
2023/03/13 06:40:26;;;;;;;6.30;3.30;;;;;;;;;;5098138;28;20452;-72
2023/03/13 06:42:57;;;;;;;9.47;2.80;;;;;;;;;;5096119;28;20451;-73
2023/03/13 06:45:40;;;;;;;6.23;2.90;;;;;;;;;;5094205;28;20448;-71
2023/03/13 06:48:09;;;;;;;12.37;2.83;;;;;;;;;;5100591;28;20878;-74
2023/03/13 06:50:39;;;;;;;5.10;1.73;;;;;;;;;;5106199;27;20523;-72
2023/03/13 06:53:07;;;;;;;7.40;2.67;;;;;;;;;;5100643;28;20474;-72
2023/03/13 06:55:38;;;;;;;8.83;2.40;;;;;;;;;;5108943;28;20493;-73
2023/03/13 06:58:11;;;;;;;7.30;2.10;;;;;;;;;;5116477;28;20557;-72
2023/03/13 07:00:42;;;;;;;6.60;2.60;;;;;;;;;;5116305;28;20447;-73
2023/03/13 07:03:11;;;;;;;7.13;2.13;;;;;;;;;;5118349;28;20477;-72
2023/03/13 07:05:39;;;;;;;9.03;2.07;;;;;;;;;;5113576;28;20459;-72
2023/03/13 07:08:07;;;;;;;4.23;1.70;;;;;;;;;;5117967;28;20478;-72
2023/03/13 07:10:38;;;;;;;6.57;2.17;;;;;;;;;;5117042;28;20447;-72
2023/03/13 07:13:06;;;;;;;5.97;1.83;;;;;;;;;;5115869;28;20455;-72
2023/03/13 07:15:37;;;;;;;7.57;2.80;;;;;;;;;;5111178;28;20459;-72
2023/03/13 07:18:13;;;;;;;7.40;2.33;;;;;;;;;;5094967;28;20447;-72
2023/03/13 07:20:45;;;;;;;9.23;2.40;;;;;;;;;;5096542;28;20666;-70
2023/03/13 07:23:13;;;;;;;9.73;2.40;;;;;;;;;;5096112;28;20736;-72
2023/03/13 07:25:41;;;;;;;4.73;2.13;;;;;;;;;;5100530;28;20459;-72
2023/03/13 07:28:09;;;;;;;5.00;2.30;;;;;;;;;;5116523;28;20455;-71
2023/03/13 07:30:37;;;;;;;5.13;2.67;;;;;;;;;;5115326;28;20501;-72
2023/03/13 07:33:05;;;;;;;7.37;3.20;;;;;;;;;;5117142;28;20625;-72
2023/03/13 07:35:34;;;;;;;6.80;2.27;;;;;;;;;;5111741;28;20447;-73
2023/03/13 07:38:03;;;;;;;12.40;3.10;;;;;;;;;;5116815;28;20443;-72
2023/03/13 07:40:32;;;;;;;7.20;3.50;;;;;;;;;;5111797;28;20446;-71
2023/03/13 07:43:13;;;;;;;9.77;2.60;;;;;;;;;;5115539;28;20443;-72
2023/03/13 07:45:51;;;;;;;16.50;3.23;;;;;;;;;;5106189;28;21131;-73
2023/03/13 07:48:19;;;;;;;7.73;3.67;;;;;;;;;;5107137;28;20452;-73
2023/03/13 07:50:49;;;;;;;5.10;2.27;;;;;;;;;;5114612;28;20466;-72
2023/03/13 07:53:20;;;;;;;7.90;3.40;;;;;;;;;;5116509;28;20626;-71
2023/03/13 07:55:57;;;;;;;5.40;2.93;;;;;;;;;;5113100;28;20570;-72
2023/03/13 07:58:25;;;;;;;5.37;2.97;;;;;;;;;;5117419;28;20553;-71
2023/03/13 08:00:58;;;;;;;10.47;4.40;;;;;;;;;;5114748;28;20465;-71
2023/03/13 08:03:39;;;;;;;6.70;3.33;;;;;;;;;;5107863;28;20516;-73
2023/03/13 08:06:11;;;;;;;4.23;2.50;;;;;;;;;;5109021;28;20520;-73
2023/03/13 08:08:39;;;;;;;4.90;3.33;;;;;;;;;;5110346;28;20455;-73
2023/03/13 08:11:10;;;;;;;5.43;2.97;;;;;;;;;;5110848;28;20487;-71
2023/03/13 08:13:40;;;;;;;4.70;2.43;;;;;;;;;;5121952;28;20577;-74
2023/03/13 08:16:08;;;;;;;7.30;2.80;;;;;;;;;;5110595;28;20447;-71
2023/03/13 08:18:37;;;;;;;6.90;4.07;;;;;;;;;;5115957;28;20471;-71
2023/03/13 08:21:12;;;;;;;6.80;3.40;;;;;;;;;;5114956;28;20454;-71
2023/03/13 08:23:46;;;;;;;5.87;2.67;;;;;;;;;;5120428;28;20972;-72
2023/03/13 08:26:25;;;;;;;8.70;3.57;;;;;;;;;;5102297;28;20470;-72
2023/03/13 08:28:54;;;;;;;16.37;4.50;;;;;;;;;;5113396;28;20535;-72
2023/03/13 08:31:24;;;;;;;7.10;2.90;;;;;;;;;;5107095;28;20575;-72
2023/03/13 08:33:52;;;;;;;4.33;2.80;;;;;;;;;;5103611;28;21098;-72
2023/03/13 08:36:24;;;;;;;6.93;3.90;;;;;;;;;;5116678;28;20483;-72
2023/03/13 08:38:52;;;;;;;5.40;3.13;;;;;;;;;;5116915;28;20467;-72
2023/03/13 08:41:21;;;;;;;9.33;3.80;;;;;;;;;;5108683;28;20467;-72
2023/03/13 08:43:49;;;;;;;8.10;4.57;;;;;;;;;;5115640;28;20806;-72
2023/03/13 08:46:18;;;;;;;5.40;2.50;;;;;;;;;;5106049;28;20479;-71
2023/03/13 08:48:50;;;;;;;5.67;3.47;;;;;;;;;;5112033;28;20462;-72
2023/03/13 08:51:18;;;;;;;6.23;4.47;;;;;;;;;;5115251;28;20459;-72
2023/03/13 08:53:50;;;;;;;8.33;4.63;;;;;;;;;;5111259;28;20457;-71
2023/03/13 08:56:25;;;;;;;7.33;4.30;;;;;;;;;;5110705;28;20451;-72
2023/03/13 08:59:07;;;;;;;7.10;3.83;;;;;;;;;;5108589;28;20457;-72
2023/03/13 09:01:48;;;;;;;11.27;5.77;;;;;;;;;;5113567;28;20466;-72
2023/03/13 09:04:19;;;;;;;8.43;5.23;;;;;;;;;;5107631;28;20860;-70
2023/03/13 09:10:03;;;;;;;7.87;5.67;;;;;;;;;;5100832;28;20527;-71
2023/03/13 09:15:46;;;;;;;7.67;3.90;;;;;;;;;;5094204;28;20466;-72
2023/03/13 09:21:21;;;;;;;4.80;3.10;;;;;;;;;;5108260;28;20447;-72
2023/03/13 09:23:51;;;;;;;7.43;3.60;;;;;;;;;;5109630;28;20459;-73
2023/03/13 09:26:31;;;;;;;3.90;2.83;;;;;;;;;;5113995;28;20522;-72
2023/03/13 09:29:18;;;;;;;7.63;4.23;;;;;;;;;;5115598;28;20469;-73
2023/03/13 09:31:59;;;;;;;6.33;3.70;;;;;;;;;;5108240;28;20912;-71
2023/03/13 09:34:35;;;;;;;4.77;4.00;;;;;;;;;;5107286;28;20493;-72
2023/03/13 09:40:31;;;;;;;6.80;4.80;;;;;;;;;;5093221;28;20478;-72
2023/03/13 09:43:03;;;;;;;8.47;4.83;;;;;;;;;;5111115;28;20475;-72
2023/03/13 09:46:13;;;;;;;6.87;4.83;;;;;;;;;;5115305;28;20520;-74
2023/03/13 09:48:46;;;;;;;6.70;4.57;;;;;;;;;;5094915;28;20470;-72
2023/03/13 09:51:18;;;;;;;10.97;5.87;;;;;;;;;;5117161;28;20497;-73
2023/03/13 09:53:55;;;;;;;8.43;5.63;;;;;;;;;;5115953;28;20470;-72
2023/03/13 09:56:27;;;;;;;7.80;5.00;;;;;;;;;;5119532;28;20930;-73
2023/03/13 10:02:25;;;;;;;7.33;5.57;;;;;;;;;;5078166;28;20452;-74
2023/03/13 10:04:57;;;;;;;6.73;4.40;;;;;;;;;;5089928;28;20777;-72
2023/03/13 10:07:36;;;;;;;6.20;4.03;;;;;;;;;;5118689;28;20443;-73
2023/03/13 10:10:17;;;;;;;8.67;5.40;;;;;;;;;;5111313;28;20450;-74
2023/03/13 10:13:02;;;;;;;6.30;4.37;;;;;;;;;;5100500;28;20439;-73
2023/03/13 10:15:44;;;;;;;9.57;5.43;;;;;;;;;;5117678;28;20481;-72
2023/03/13 10:18:28;;;;;;;8.07;5.00;;;;;;;;;;5116599;28;20525;-73
2023/03/13 10:21:07;;;;;;;7.20;4.97;;;;;;;;;;5105077;28;20443;-74
2023/03/13 10:27:06;;;;;;;6.53;3.47;;;;;;;;;;5107847;28;20454;-73
2023/03/13 10:29:45;;;;;;;9.13;4.10;;;;;;;;;;5108459;28;20468;-73
2023/03/13 10:35:52;;;;;;;8.33;5.47;;;;;;;;;;5044866;28;20559;-74
2023/03/13 10:38:26;;;;;;;5.10;4.03;;;;;;;;;;5067289;28;20792;-73
2023/03/13 10:41:30;;;;;;;8.87;5.67;;;;;;;;;;5099035;28;20463;-73
2023/03/13 10:47:17;;;;;;;4.87;4.30;;;;;;;;;;5097160;28;20475;-75
2023/03/13 10:52:46;;;;;;;5.07;3.80;;;;;;;;;;5094496;28;20467;-74
2023/03/13 10:55:25;;;;;;;5.57;4.57;;;;;;;;;;5105714;28;20539;-75
2023/03/13 10:58:10;;;;;;;5.43;3.77;;;;;;;;;;5098326;28;20843;-74
2023/03/13 11:00:40;;;;;;;6.60;4.40;;;;;;;;;;5100624;28;20878;-73
2023/03/13 11:03:34;;;;;;;7.40;4.97;;;;;;;;;;5104951;28;20554;-72
2023/03/13 11:06:20;;;;;;;4.13;3.10;;;;;;;;;;5107375;28;20482;-73
2023/03/13 11:08:49;;;;;;;5.17;4.00;;;;;;;;;;5110577;28;20465;-73
2023/03/13 11:14:25;;;;;;;6.13;4.17;;;;;;;;;;5088811;28;20452;-73
2023/03/13 11:20:10;;;;;;;4.23;2.97;;;;;;;;;;5096086;28;20491;-74
2023/03/13 11:26:04;;;;;;;4.87;3.10;;;;;;;;;;5107358;28;20897;-74
2023/03/13 11:29:03;;;;;;;11.70;4.10;;;;;;;;;;5122158;28;20561;-71
2023/03/13 11:31:38;;;;;;;5.73;3.30;;;;;;;;;;5108352;28;20735;-72
2023/03/13 11:34:44;;;;;;;5.10;3.40;;;;;;;;;;5109954;28;20450;-72
2023/03/13 11:37:14;;;;;;;5.40;3.13;;;;;;;;;;5115811;28;20479;-72
2023/03/13 11:39:52;;;;;;;4.43;2.20;;;;;;;;;;5116538;28;20435;-73
2023/03/13 11:42:36;;;;;;;4.83;2.90;;;;;;;;;;5118313;28;20438;-73
2023/03/13 11:45:23;;;;;;;3.90;3.50;;;;;;;;;;5098063;28;20483;-72
2023/03/13 11:48:01;;;;;;;4.07;2.50;;;;;;;;;;5104221;28;20481;-73
2023/03/13 11:50:45;;;;;;;6.13;2.77;;;;;;;;;;5100827;28;20439;-73
2023/03/13 11:53:27;;;;;;;4.00;2.80;;;;;;;;;;5100089;28;20452;-72
2023/03/13 11:56:02;;;;;;;2.60;1.90;;;;;;;;;;5109914;28;20454;-74
2023/03/13 11:58:39;;;;;;;3.67;2.23;;;;;;;;;;5103017;28;20894;-73
2023/03/13 12:01:11;;;;;;;5.37;3.40;;;;;;;;;;5107761;28;20484;-72
2023/03/13 12:04:05;;;;;;;5.27;2.93;;;;;;;;;;5102095;28;20434;-72
2023/03/13 12:06:39;;;;;;;4.50;2.63;;;;;;;;;;5105520;28;20557;-73
2023/03/13 12:09:11;;;;;;;2.83;2.47;;;;;;;;;;5121634;28;20851;-73
2023/03/13 12:11:51;;;;;;;4.13;2.30;;;;;;;;;;5103083;28;20452;-72
2023/03/13 12:14:37;;;;;;;2.80;2.10;;;;;;;;;;5104650;28;20479;-74
2023/03/13 12:17:17;;;;;;;4.97;2.37;;;;;;;;;;5121237;28;20451;-72
2023/03/13 12:19:55;;;;;;;5.40;2.43;;;;;;;;;;5113499;28;20906;-73
2023/03/13 12:25:16;;;;;;;4.00;1.73;;;;;;;;;;5101558;28;20506;-73
2023/03/13 12:27:47;;;;;;;2.80;1.83;;;;;;;;;;5109903;27;20456;-73
2023/03/13 12:30:22;;;;;;;4.73;2.67;;;;;;;;;;5112034;28;20469;-73
2023/03/13 12:32:57;;;;;;;7.37;1.60;;;;;;;;;;5122225;28;20461;-74
2023/03/13 12:35:32;;;;;;;4.07;1.93;;;;;;;;;;5120923;28;20450;-73
2023/03/13 12:38:24;;;;;;;3.43;1.80;;;;;;;;;;5122807;28;20453;-73
2023/03/13 12:41:18;;;;;;;3.73;1.47;;;;;;;;;;5123348;28;20469;-73
2023/03/13 12:46:59;;;;;;;2.90;1.37;;;;;;;;;;5121923;28;20495;-73
2023/03/13 12:49:50;;;;;;;3.80;1.80;;;;;;;;;;5107634;28;20458;-73
2023/03/13 12:52:35;;;;;;;4.70;1.60;;;;;;;;;;5121722;28;20443;-73
2023/03/13 12:55:25;;;;;;;4.10;2.37;;;;;;;;;;5121729;28;20458;-73
2023/03/13 12:58:19;;;;;;;3.77;2.50;;;;;;;;;;5120584;28;20467;-73
2023/03/13 13:00:51;;;;;;;3.37;1.40;;;;;;;;;;5108030;28;20543;-72
2023/03/13 13:06:18;;;;;;;2.00;1.40;;;;;;;;;;5098183;28;20910;-72
2023/03/13 13:12:18;;;;;;;3.10;1.83;;;;;;;;;;5118085;28;21102;-73
2023/03/13 13:15:12;;;;;;;2.73;0.87;;;;;;;;;;5115283;28;20436;-73
2023/03/13 13:18:01;;;;;;;5.67;1.00;;;;;;;;;;5102904;28;20513;-74
2023/03/13 13:20:47;;;;;;;2.50;1.00;;;;;;;;;;5103837;28;20451;-74
2023/03/13 13:23:45;;;;;;;4.43;1.13;;;;;;;;;;5115955;28;20463;-73
2023/03/13 13:26:35;;;;;;;3.00;1.13;;;;;;;;;;5107796;28;20539;-73
2023/03/13 13:29:39;;;;;;;2.50;1.30;;;;;;;;;;5107294;28;20455;-71
2023/03/13 13:32:21;;;;;;;2.73;0.80;;;;;;;;;;5117297;28;20478;-72
2023/03/13 13:35:13;;;;;;;1.60;0.60;;;;;;;;;;5114443;28;20546;-72
2023/03/13 13:37:48;;;;;;;2.97;1.00;;;;;;;;;;5116861;28;20570;-72
2023/03/13 13:40:25;;;;;;;5.53;0.90;;;;;;;;;;5116049;28;20471;-74
2023/03/13 13:46:32;;;;;;;;;;;;;;;;;;;;;
2023/03/13 13:55:48;;;;;;;3.20;1.13;;;;;;;;;;5105998;28;20459;-72
2023/03/13 13:58:21;;;;;;;4.00;1.10;;;;;;;;;;5112620;28;20466;-73
2023/03/13 14:00:59;;;;;;;4.20;1.07;;;;;;;;;;5114639;28;20482;-74
2023/03/13 14:03:32;;;;;;;7.70;1.87;;;;;;;;;;5102373;28;20464;-73
2023/03/13 14:06:18;;;;;;;5.30;1.60;;;;;;;;;;5111972;28;20588;-73
2023/03/13 14:08:52;;;;;;;3.57;1.50;;;;;;;;;;5108307;28;20472;-72
2023/03/13 14:11:31;;;;;;;3.50;1.20;;;;;;;;;;5107733;28;20558;-72
2023/03/13 14:14:12;;;;;;;8.83;2.23;;;;;;;;;;5102271;28;20459;-73
2023/03/13 14:16:49;;;;;;;4.57;1.33;;;;;;;;;;5116974;28;20538;-73
2023/03/13 14:22:14;;;;;;;2.90;1.47;;;;;;;;;;5118190;28;20447;-72
2023/03/13 14:24:42;;;;;;;2.67;1.10;;;;;;;;;;5114383;28;20462;-73
2023/03/13 14:27:20;;;;;;;2.07;0.80;;;;;;;;;;5116871;28;20482;-74
2023/03/13 14:30:12;;;;;;;5.50;1.70;;;;;;;;;;5109041;28;20848;-74
2023/03/13 14:33:05;;;;;;;4.00;1.30;;;;;;;;;;5112721;28;20459;-74
2023/03/13 14:35:52;;;;;;;3.40;1.10;;;;;;;;;;5108851;28;20447;-72
2023/03/13 14:38:30;;;;;;;5.47;1.30;;;;;;;;;;5106567;28;20474;-73
2023/03/13 14:40:57;;;;;;;3.53;1.20;;;;;;;;;;5118156;28;20485;-73
2023/03/13 14:43:50;;;;;;;3.40;1.10;;;;;;;;;;5116540;28;20455;-73
2023/03/13 14:46:36;;;;;;;4.93;1.63;;;;;;;;;;5119980;28;20517;-73
2023/03/13 14:49:16;;;;;;;2.83;0.87;;;;;;;;;;5108182;28;20446;-74
2023/03/13 14:51:58;;;;;;;6.97;1.73;;;;;;;;;;5105351;28;20573;-72
2023/03/13 14:54:41;;;;;;;6.50;1.53;;;;;;;;;;5098163;28;20448;-73
2023/03/13 14:57:25;;;;;;;9.60;1.80;;;;;;;;;;5116290;28;20537;-73
2023/03/13 15:00:18;;;;;;;3.00;1.10;;;;;;;;;;5103792;28;20452;-74
2023/03/13 15:03:27;;;;;;;3.93;1.73;;;;;;;;;;5106024;28;20455;-73
2023/03/13 15:06:19;;;;;;;7.90;1.77;;;;;;;;;;5103266;28;20479;-72
2023/03/13 15:09:15;;;;;;;3.77;1.40;;;;;;;;;;5110180;28;20538;-72
2023/03/13 15:12:01;;;;;;;3.80;1.20;;;;;;;;;;5118608;28;20490;-74
2023/03/13 15:14:56;;;;;;;6.57;2.53;;;;;;;;;;5106038;28;20524;-73
2023/03/13 15:17:48;;;;;;;5.47;1.57;;;;;;;;;;5096815;28;20517;-74
2023/03/13 15:20:17;;;;;;;3.17;1.10;;;;;;;;;;5102470;28;20460;-73
2023/03/13 15:23:22;;;;;;;6.07;2.07;;;;;;;;;;5107965;28;20477;-74
2023/03/13 15:29:00;;;;;;;6.73;1.60;;;;;;;;;;5102298;28;20551;-73
2023/03/13 15:31:30;;;;;;;3.20;1.37;;;;;;;;;;5109488;28;20855;-73
2023/03/13 15:34:04;;;;;;;3.87;1.20;;;;;;;;;;5115086;28;20815;-73
2023/03/13 15:36:33;;;;;;;5.93;1.90;;;;;;;;;;5099625;28;20507;-73
2023/03/13 15:39:04;;;;;;;3.87;1.57;;;;;;;;;;5105475;28;20964;-72
2023/03/13 15:41:45;;;;;;;6.67;2.10;;;;;;;;;;5101855;28;20524;-72
2023/03/13 15:44:30;;;;;;;6.00;2.17;;;;;;;;;;5109189;28;20830;-74
2023/03/13 15:47:11;;;;;;;3.87;1.50;;;;;;;;;;5115167;28;20479;-73
2023/03/13 15:49:51;;;;;;;6.80;1.50;;;;;;;;;;5113068;28;20489;-73
2023/03/13 15:52:23;;;;;;;2.73;1.17;;;;;;;;;;5120470;28;20495;-72
2023/03/13 15:55:08;;;;;;;;;;;;;;;;;;;;;
2023/03/13 16:01:04;;;;;;;4.57;1.40;;;;;;;;;;5106508;28;20471;-73
2023/03/13 16:06:52;;;;;;;3.80;1.80;;;;;;;;;;5100308;28;20491;-72
2023/03/13 16:09:29;;;;;;;4.70;1.00;;;;;;;;;;5102836;28;20455;-72
2023/03/13 16:12:08;;;;;;;2.70;1.00;;;;;;;;;;5095515;28;20587;-71
2023/03/13 16:14:51;;;;;;;;;;;;;;;;;;;;;
2023/03/13 16:17:27;;;;;;;4.63;1.80;;;;;;;;;;5111333;28;20446;-73
2023/03/13 16:19:56;;;;;;;3.47;1.03;;;;;;;;;;5119410;28;20729;-73
2023/03/13 16:22:31;;;;;;;5.07;1.00;;;;;;;;;;5118329;28;20521;-74
2023/03/13 16:25:05;;;;;;;3.20;1.03;;;;;;;;;;5118117;28;20449;-73
2023/03/13 16:27:48;;;;;;;4.40;1.37;;;;;;;;;;5097265;28;20481;-73
2023/03/13 16:30:28;;;;;;;4.00;1.13;;;;;;;;;;5100356;28;20470;-74
2023/03/13 16:32:56;;;;;;;3.60;1.30;;;;;;;;;;5097679;28;20466;-75
2023/03/13 16:35:27;;;;;;;7.37;2.37;;;;;;;;;;5100824;28;20455;-72